createdAt,value
2022-09-03T00:02:22.432Z,12.12
2022-09-03T00:05:15.746Z,11.87
2022-09-03T00:08:02.644Z,12.02
2022-09-03T00:11:01.540Z,11.92
2022-09-03T00:13:55.785Z,11.85
2022-09-03T00:16:29.637Z,12.00
2022-09-03T00:19:03.838Z,11.74
2022-09-03T00:21:47.492Z,11.77
2022-09-03T00:24:18.658Z,11.81
2022-09-03T00:26:51.935Z,11.92
2022-09-03T00:29:31.250Z,11.67
2022-09-03T00:32:07.018Z,11.49
2022-09-03T00:34:43.530Z,11.54
2022-09-03T00:37:14.337Z,11.23
2022-09-03T00:39:43.316Z,11.32
2022-09-03T00:42:52.085Z,11.44
2022-09-03T00:45:33.949Z,11.42
2022-09-03T00:48:30.897Z,11.16
2022-09-03T00:51:34.469Z,11.18
2022-09-03T00:54:34.032Z,11.19
2022-09-03T00:57:47.295Z,11.19
2022-09-03T01:53:39.086Z,10.69
2022-09-03T02:23:34.468Z,10.27
2022-09-03T02:26:03.571Z,10.27
2022-09-03T02:55:39.532Z,9.87
2022-09-03T02:58:06.956Z,9.93
2022-09-03T05:06:47.835Z,25.66
2022-09-03T06:04:54.677Z,35.83
2022-09-03T06:07:53.359Z,36.09
2022-09-03T06:10:25.612Z,36.39
2022-09-03T06:12:54.061Z,36.60
2022-09-03T06:15:21.029Z,36.77
2022-09-03T06:17:47.989Z,36.43
2022-09-03T06:20:15.359Z,36.46
2022-09-03T06:22:42.315Z,36.87
2022-09-03T06:25:10.163Z,37.33
2022-09-03T06:27:37.119Z,37.28
2022-09-03T06:30:04.723Z,37.71
2022-09-03T06:32:31.710Z,36.73
2022-09-03T06:34:58.729Z,37.08
2022-09-03T06:37:25.711Z,37.92
2022-09-03T06:39:53.123Z,38.34
2022-09-03T06:42:20.579Z,37.97
2022-09-03T07:08:12.136Z,37.97
2022-09-03T07:10:39.344Z,38.31
2022-09-03T07:13:06.727Z,37.70
2022-09-03T07:15:34.241Z,37.51
2022-09-03T07:18:01.253Z,37.66
2022-09-03T07:20:28.223Z,36.31
2022-09-03T07:22:56.852Z,36.50
2022-09-03T07:25:26.365Z,36.79
2022-09-03T07:27:53.691Z,36.23
2022-09-03T07:30:20.850Z,36.75
2022-09-03T07:32:51.034Z,36.70
2022-09-03T07:35:19.431Z,35.98
2022-09-03T07:37:48.686Z,35.54
2022-09-03T07:40:18.206Z,36.33
2022-09-03T07:42:45.193Z,35.63
2022-09-03T07:45:13.567Z,35.95
2022-09-03T07:47:56.752Z,34.71
2022-09-03T07:50:24.052Z,34.93
2022-09-03T07:53:04.358Z,36.13
2022-09-03T07:55:31.287Z,35.73
2022-09-03T07:57:59.777Z,36.00
2022-09-03T08:00:26.840Z,35.45
2022-09-03T08:02:56.739Z,35.06
2022-09-03T08:05:23.705Z,34.73
2022-09-03T08:07:51.011Z,35.60
2022-09-03T08:10:18.041Z,36.25
2022-09-03T08:12:45.034Z,35.94
2022-09-03T08:15:11.994Z,35.35
2022-09-03T08:17:39.027Z,34.40
2022-09-03T08:20:06.413Z,34.17
2022-09-03T08:22:34.117Z,34.72
2022-09-03T08:25:01.739Z,33.30
2022-09-03T08:27:29.176Z,32.82
2022-09-03T08:29:56.201Z,33.53
2022-09-03T08:32:23.223Z,32.37
2022-09-03T08:34:52.288Z,32.90
2022-09-03T08:37:19.276Z,31.86
2022-09-03T08:39:46.318Z,31.81
2022-09-03T08:42:41.928Z,31.37
2022-09-03T08:45:16.381Z,30.16
2022-09-03T08:47:55.623Z,30.55
2022-09-03T08:50:31.686Z,30.24
2022-09-03T08:53:21.278Z,29.26
2022-09-03T08:56:09.135Z,29.38
2022-09-03T08:58:43.977Z,29.41
2022-09-03T09:01:36.517Z,28.87
2022-09-03T09:04:32.221Z,28.54
2022-09-03T09:07:22.635Z,27.47
2022-09-03T09:10:10.901Z,27.88
2022-09-03T09:13:09.585Z,28.02
2022-09-03T09:15:54.859Z,28.98
2022-09-03T09:19:16.205Z,30.08
2022-09-03T09:22:24.346Z,29.59
2022-09-03T09:24:54.424Z,29.46
2022-09-03T09:27:21.733Z,29.34
2022-09-03T09:29:52.350Z,28.74
2022-09-03T09:32:21.644Z,28.00
2022-09-03T09:34:52.303Z,27.75
2022-09-03T09:37:19.964Z,27.66
2022-09-03T09:40:01.067Z,28.54
2022-09-03T09:42:31.085Z,28.57
2022-09-03T09:45:08.550Z,29.47
2022-09-03T09:47:40.036Z,29.51
2022-09-03T09:50:26.188Z,29.20
2022-09-03T09:53:30.230Z,29.47
2022-09-03T09:55:58.395Z,29.15
2022-09-03T09:58:33.221Z,28.85
2022-09-03T10:01:13.460Z,28.99
2022-09-03T10:04:33.386Z,28.55
2022-09-03T10:07:25.897Z,27.42
2022-09-03T10:10:22.131Z,27.16
2022-09-03T10:13:12.606Z,27.77
2022-09-03T10:16:14.482Z,28.65
2022-09-03T10:18:47.237Z,28.96
2022-09-03T10:21:57.858Z,28.67
2022-09-03T10:24:58.198Z,28.32
2022-09-03T10:27:25.991Z,28.06
2022-09-03T10:29:53.575Z,28.40
2022-09-03T10:32:39.796Z,28.00
2022-09-03T10:35:29.743Z,26.98
2022-09-03T10:38:34.693Z,26.38
2022-09-03T10:42:07.097Z,26.54
2022-09-03T10:44:52.819Z,27.08
2022-09-03T10:47:43.487Z,27.22
2022-09-03T10:50:27.200Z,27.19
2022-09-03T10:53:24.914Z,27.14
2022-09-03T10:56:04.120Z,27.67
2022-09-03T10:58:57.614Z,26.76
2022-09-03T11:02:21.918Z,26.32
2022-09-03T11:05:16.705Z,25.82
2022-09-03T11:07:58.518Z,25.92
2022-09-03T11:10:33.759Z,26.14
2022-09-03T11:13:07.706Z,26.06
2022-09-03T11:15:52.856Z,25.80
2022-09-03T11:18:51.311Z,25.51
2022-09-03T11:21:23.732Z,24.74
2022-09-03T11:24:23.330Z,24.74
2022-09-03T11:27:16.703Z,25.01
2022-09-03T11:30:34.335Z,25.64
2022-09-03T11:33:10.429Z,25.44
2022-09-03T11:35:38.836Z,25.26
2022-09-03T11:38:16.713Z,24.97
2022-09-03T11:41:00.162Z,24.68
2022-09-03T11:43:31.367Z,24.59
2022-09-03T11:46:21.871Z,24.36
2022-09-03T11:49:02.349Z,24.69
2022-09-03T11:51:32.008Z,24.31
2022-09-03T11:54:13.845Z,24.16
2022-09-03T11:56:42.669Z,24.12
2022-09-03T11:59:19.709Z,24.00
2022-09-03T12:01:59.167Z,23.94
2022-09-03T12:04:54.666Z,24.16
2022-09-03T12:07:49.332Z,24.25
2022-09-03T12:10:51.886Z,24.60
2022-09-03T12:13:43.326Z,24.25
2022-09-03T12:16:39.370Z,23.66
2022-09-03T12:19:27.940Z,23.29
2022-09-03T12:21:56.549Z,23.56
2022-09-03T12:24:37.803Z,23.41
2022-09-03T12:27:05.841Z,23.23
2022-09-03T12:29:33.182Z,22.90
2022-09-03T12:32:11.723Z,22.74
2022-09-03T12:34:38.762Z,22.76
2022-09-03T12:38:04.341Z,23.25
2022-09-03T12:40:23.022Z,23.56
2022-09-03T12:46:09.360Z,23.08
2022-09-03T12:48:19.138Z,23.35
2022-09-03T12:50:56.219Z,23.05
2022-09-03T12:53:26.903Z,23.01
2022-09-03T12:56:01.494Z,22.87
2022-09-03T12:58:40.381Z,23.02
2022-09-03T13:01:22.510Z,23.32
2022-09-03T13:04:30.198Z,23.50
2022-09-03T13:07:05.110Z,23.05
2022-09-03T13:09:37.712Z,23.05
2022-09-03T13:12:06.013Z,23.07
2022-09-03T13:14:44.534Z,23.33
2022-09-03T13:17:26.336Z,23.42
2022-09-03T13:20:29.417Z,23.57
2022-09-03T13:23:09.110Z,23.17
2022-09-03T13:29:01.842Z,23.27
2022-09-03T13:31:48.011Z,23.00
2022-09-03T13:34:30.345Z,22.85
2022-09-03T13:37:23.977Z,23.04
2022-09-03T13:39:59.828Z,23.18
2022-09-03T13:42:45.751Z,23.62
2022-09-03T13:45:38.812Z,23.26
2022-09-03T13:48:43.036Z,23.11
2022-09-03T13:51:19.508Z,23.14
2022-09-03T13:54:10.012Z,23.21
2022-09-03T13:57:04.239Z,22.91
2022-09-03T14:00:10.617Z,23.24
2022-09-03T14:02:58.020Z,23.58
2022-09-03T14:06:02.065Z,23.43
2022-09-03T14:09:04.754Z,23.38
2022-09-03T14:11:40.646Z,22.94
2022-09-03T14:14:37.113Z,22.68
2022-09-03T14:17:37.645Z,22.95
2022-09-03T14:20:22.385Z,22.93
2022-09-03T14:23:42.026Z,22.94
2022-09-03T14:26:38.553Z,22.77
2022-09-03T14:29:12.439Z,22.92
2022-09-03T14:32:22.987Z,22.67
2022-09-03T14:35:29.486Z,22.78
2022-09-03T14:38:26.465Z,22.79
2022-09-03T14:41:14.015Z,22.92
2022-09-03T14:44:18.877Z,23.05
2022-09-03T14:47:21.864Z,23.25
2022-09-03T14:50:24.973Z,23.06
2022-09-03T14:53:30.080Z,23.27
2022-09-03T14:56:15.424Z,23.05
2022-09-03T14:59:23.167Z,22.90
2022-09-03T15:02:24.517Z,22.88
2022-09-03T15:05:11.018Z,22.86
2022-09-03T15:07:53.743Z,22.67
2022-09-03T15:10:55.899Z,22.67
2022-09-03T15:13:42.469Z,22.67
2022-09-03T15:16:19.303Z,22.81
2022-09-03T15:19:13.572Z,22.82
2022-09-03T15:22:06.233Z,22.83
2022-09-03T15:24:54.141Z,22.74
2022-09-03T15:28:22.080Z,22.30
2022-09-03T15:31:17.471Z,22.35
2022-09-03T15:34:06.083Z,22.24
2022-09-03T15:36:41.898Z,22.27
2022-09-03T15:39:35.237Z,22.30
2022-09-03T15:42:08.401Z,22.35
2022-09-03T15:44:48.163Z,22.52
2022-09-03T15:47:51.452Z,22.45
2022-09-03T15:50:52.733Z,22.39
2022-09-03T15:53:48.326Z,22.23
2022-09-03T15:56:53.215Z,22.15
2022-09-03T15:59:49.857Z,22.19
2022-09-03T16:02:24.738Z,22.11
2022-09-03T16:05:16.358Z,21.82
2022-09-03T16:07:49.013Z,22.00
2022-09-03T16:10:26.332Z,21.97
2022-09-03T16:13:39.310Z,21.86
2022-09-03T16:16:11.616Z,21.92
2022-09-03T16:19:21.084Z,21.66
2022-09-03T16:22:13.778Z,21.68
2022-09-03T16:24:59.411Z,21.56
2022-09-03T16:27:41.529Z,21.62
2022-09-03T16:30:21.801Z,21.66
2022-09-03T16:33:24.928Z,21.84
2022-09-03T16:36:16.060Z,21.60
2022-09-03T16:39:28.670Z,21.57
2022-09-03T16:42:23.730Z,21.72
2022-09-03T16:45:36.503Z,21.53
2022-09-03T16:48:25.134Z,21.31
2022-09-03T16:51:20.959Z,21.43
2022-09-03T16:54:28.089Z,21.13
2022-09-03T16:57:06.555Z,21.18
2022-09-03T17:00:14.857Z,20.97
2022-09-03T17:03:44.307Z,20.75
2022-09-03T17:06:51.499Z,20.82
2022-09-03T17:10:05.558Z,20.88
2022-09-03T17:12:50.164Z,20.73
2022-09-03T17:15:49.664Z,20.58
2022-09-03T17:18:52.930Z,20.75
2022-09-03T17:21:48.895Z,20.37
2022-09-03T17:24:54.095Z,20.26
2022-09-03T17:27:41.277Z,20.30
2022-09-03T17:30:23.320Z,20.24
2022-09-03T17:33:07.027Z,20.16
2022-09-03T17:36:14.659Z,20.11
2022-09-03T17:39:12.929Z,20.13
2022-09-03T17:41:54.783Z,19.99
2022-09-03T17:45:05.563Z,20.02
2022-09-03T17:47:53.633Z,19.91
2022-09-03T17:50:26.327Z,20.02
2022-09-03T17:53:02.413Z,20.04
2022-09-03T17:55:45.447Z,19.78
2022-09-03T17:58:30.331Z,19.74
2022-09-03T18:01:20.388Z,19.61
2022-09-03T18:03:57.436Z,19.70
2022-09-03T18:06:40.580Z,19.48
2022-09-03T18:09:28.627Z,19.52
2022-09-03T18:12:13.431Z,19.55
2022-09-03T18:15:13.400Z,19.47
2022-09-03T18:17:51.144Z,19.57
2022-09-03T18:20:38.354Z,19.52
2022-09-03T18:23:39.649Z,19.30
2022-09-03T18:26:44.636Z,19.48
2022-09-03T18:29:44.066Z,19.62
2022-09-03T18:32:31.877Z,19.50
2022-09-03T18:35:17.831Z,19.27
2022-09-03T18:38:03.473Z,19.20
2022-09-03T18:41:20.364Z,19.13
2022-09-03T18:44:37.330Z,19.27
2022-09-03T18:48:06.029Z,19.26
2022-09-03T18:51:19.743Z,19.17
2022-09-03T18:54:50.529Z,19.02
2022-09-03T18:58:14.179Z,18.96
2022-09-03T19:01:20.017Z,19.07
2022-09-03T19:04:27.502Z,18.79
2022-09-03T19:07:30.474Z,19.08
2022-09-03T19:10:29.383Z,19.04
2022-09-03T19:13:52.577Z,19.06
2022-09-03T19:17:10.940Z,19.08
2022-09-03T19:20:18.413Z,18.97
2022-09-03T19:23:04.011Z,18.76
2022-09-03T19:25:50.630Z,18.74
2022-09-03T19:28:45.472Z,18.67
2022-09-03T19:32:00.267Z,18.68
2022-09-03T19:35:03.533Z,18.65
2022-09-03T19:38:18.570Z,18.41
2022-09-03T19:41:12.176Z,18.50
2022-09-03T19:44:38.683Z,18.40
2022-09-03T19:47:27.525Z,18.34
2022-09-03T19:50:37.493Z,18.28
2022-09-03T19:53:31.493Z,18.22
2022-09-03T19:56:29.918Z,18.30
2022-09-03T19:59:28.946Z,18.13
2022-09-03T20:02:14.572Z,18.09
2022-09-03T20:05:16.227Z,17.91
2022-09-03T20:08:03.007Z,17.90
2022-09-03T20:10:29.947Z,17.78
2022-09-03T20:13:13.498Z,17.74
2022-09-03T20:16:25.926Z,17.73
2022-09-03T20:19:15.994Z,17.74
2022-09-03T20:25:28.107Z,17.74
2022-09-03T20:28:07.234Z,17.62
2022-09-03T20:30:51.192Z,17.68
2022-09-03T20:33:45.411Z,17.66
2022-09-03T20:36:41.188Z,17.75
2022-09-03T20:39:41.257Z,17.54
2022-09-03T20:42:39.317Z,17.60
2022-09-03T20:45:33.876Z,17.47
2022-09-03T20:48:28.489Z,17.20
2022-09-03T20:51:22.791Z,17.31
2022-09-03T20:54:08.822Z,17.19
2022-09-03T20:57:00.086Z,17.11
2022-09-03T20:59:45.521Z,17.00
2022-09-03T21:02:37.225Z,17.01
2022-09-03T21:05:29.651Z,16.98
2022-09-03T21:08:11.529Z,17.14
2022-09-03T21:11:06.326Z,17.08
2022-09-03T21:14:05.541Z,17.05
2022-09-03T21:16:38.389Z,17.12
2022-09-03T21:19:20.962Z,17.05
2022-09-03T21:22:04.818Z,17.10
2022-09-03T21:24:46.311Z,17.09
2022-09-03T21:27:20.844Z,17.05
2022-09-03T21:30:06.452Z,17.03
2022-09-03T21:33:04.691Z,16.90
2022-09-03T21:35:49.786Z,16.55
2022-09-03T21:38:27.922Z,16.57
2022-09-03T22:08:45.485Z,15.16
2022-09-03T22:11:25.093Z,15.01
2022-09-03T23:10:10.304Z,13.06
2022-09-03T23:41:27.024Z,12.74
2022-09-03T23:44:52.117Z,12.87
